createdAt,value
2018-05-08T00:00:01.472Z,1010.76
2018-05-08T00:01:10.116Z,1010.75
2018-05-08T00:02:18.768Z,1010.77
2018-05-08T00:03:27.406Z,1010.7
2018-05-08T00:04:36.319Z,1010.68
2018-05-08T00:05:45.234Z,1010.68
2018-05-08T00:06:53.878Z,1010.68
2018-05-08T00:08:02.521Z,1010.64
2018-05-08T00:09:11.170Z,1010.64
2018-05-08T00:10:19.817Z,1010.64
2018-05-08T00:11:28.463Z,1010.65
2018-05-08T00:12:37.107Z,1010.65
2018-05-08T00:13:45.749Z,1010.68
2018-05-08T00:14:54.397Z,1010.61
2018-05-08T00:16:03.040Z,1010.61
2018-05-08T00:17:11.962Z,1010.63
2018-05-08T00:18:20.592Z,1010.61
2018-05-08T00:19:29.502Z,1010.6
2018-05-08T00:20:38.152Z,1010.56
2018-05-08T00:21:46.800Z,1010.56
2018-05-08T00:22:55.454Z,1010.55
2018-05-08T00:24:04.357Z,1010.53
2018-05-08T00:25:13.011Z,1010.5
2018-05-08T00:26:21.646Z,1010.5
2018-05-08T00:27:30.302Z,1010.47
2018-05-08T00:28:38.938Z,1010.48
2018-05-08T00:29:47.586Z,1010.45
2018-05-08T00:30:56.226Z,1010.41
2018-05-08T00:32:04.884Z,1010.42
2018-05-08T00:33:14.048Z,1010.4
2018-05-08T00:34:22.699Z,1010.36
2018-05-08T00:35:31.342Z,1010.36
2018-05-08T00:36:40.261Z,1010.33
2018-05-08T00:37:48.903Z,1010.35
2018-05-08T00:38:57.806Z,1010.33
2018-05-08T00:40:06.447Z,1010.34
2018-05-08T00:41:15.091Z,1010.33
2018-05-08T00:42:23.743Z,1010.28
2018-05-08T00:43:32.643Z,1010.28
2018-05-08T00:44:41.292Z,1010.26
2018-05-08T00:45:49.929Z,1010.24
2018-05-08T00:46:58.581Z,1010.2
2018-05-08T00:48:07.223Z,1010.17
2018-05-08T00:49:15.877Z,1010.15
2018-05-08T00:50:24.512Z,1010.19
2018-05-08T00:51:33.169Z,1010.18
2018-05-08T00:52:42.074Z,1010.16
2018-05-08T00:53:50.719Z,1010.16
2018-05-08T00:54:59.352Z,1010.13
2018-05-08T00:56:08.266Z,1010.15
2018-05-08T00:57:16.909Z,1010.15
2018-05-08T00:58:25.554Z,1010.09
2018-05-08T00:59:34.199Z,1010.12
2018-05-08T01:00:42.833Z,1010.11
2018-05-08T01:01:51.482Z,1010.1
2018-05-08T01:03:00.121Z,1010.07
2018-05-08T01:04:08.774Z,1010.04
2018-05-08T01:05:17.409Z,1010.05
2018-05-08T01:06:26.057Z,1010.05
2018-05-08T01:07:34.704Z,1010.04
2018-05-08T01:08:43.353Z,1010.07
2018-05-08T01:09:51.987Z,1010.02
2018-05-08T01:11:00.643Z,1010.04
2018-05-08T01:12:09.552Z,1010.1
2018-05-08T01:13:18.208Z,1010.05
2018-05-08T01:14:26.851Z,1010.07
2018-05-08T01:15:35.753Z,1010.05
2018-05-08T01:16:44.397Z,1010.01
2018-05-08T01:17:53.038Z,1010.03
2018-05-08T01:19:01.688Z,1009.97
2018-05-08T01:20:10.338Z,1009.96
2018-05-08T01:21:18.979Z,1009.93
2018-05-08T01:22:27.618Z,1009.91
2018-05-08T01:23:36.269Z,1009.89
2018-05-08T01:24:44.914Z,1009.92
2018-05-08T01:25:53.559Z,1009.93
2018-05-08T01:27:02.200Z,1009.92
2018-05-08T01:28:10.852Z,1009.93
2018-05-08T01:29:19.494Z,1009.92
2018-05-08T01:30:28.141Z,1009.91
2018-05-08T01:31:37.054Z,1009.84
2018-05-08T01:32:46.033Z,1009.87
2018-05-08T01:33:54.943Z,1009.87
2018-05-08T01:35:03.590Z,1009.81
2018-05-08T01:36:12.236Z,1009.84
2018-05-08T01:37:20.879Z,1009.82
2018-05-08T01:38:29.524Z,1009.82
2018-05-08T01:39:38.427Z,1009.8
2018-05-08T01:40:47.341Z,1009.81
2018-05-08T01:41:55.980Z,1009.85
2018-05-08T01:43:04.625Z,1009.79
2018-05-08T01:44:13.266Z,1009.84
2018-05-08T01:45:21.914Z,1009.82
2018-05-08T01:46:30.553Z,1009.82
2018-05-08T01:47:39.199Z,1009.81
2018-05-08T01:48:47.842Z,1009.78
2018-05-08T01:49:56.491Z,1009.78
2018-05-08T01:51:05.132Z,1009.75
2018-05-08T01:52:13.778Z,1009.77
2018-05-08T01:53:22.427Z,1009.77
2018-05-08T01:54:31.068Z,1009.76
2018-05-08T01:55:39.720Z,1009.71
2018-05-08T01:56:48.371Z,1009.74
2018-05-08T01:57:57.002Z,1009.76
2018-05-08T01:59:05.641Z,1009.76
2018-05-08T02:00:14.291Z,1009.72
2018-05-08T02:01:22.939Z,1009.73
2018-05-08T02:02:31.581Z,1009.72
2018-05-08T02:03:40.220Z,1009.72
2018-05-08T02:04:48.871Z,1009.73
2018-05-08T02:05:57.779Z,1009.73
2018-05-08T02:07:06.426Z,1009.72
2018-05-08T02:08:15.340Z,1009.72
2018-05-08T02:09:23.987Z,1009.67
2018-05-08T02:10:32.896Z,1009.64
2018-05-08T02:11:41.544Z,1009.62
2018-05-08T02:12:50.188Z,1009.63
2018-05-08T02:13:59.098Z,1009.61
2018-05-08T02:15:08.004Z,1009.61
2018-05-08T02:16:16.649Z,1009.59
2018-05-08T02:17:25.293Z,1009.62
2018-05-08T02:18:33.939Z,1009.62
2018-05-08T02:19:42.849Z,1009.66
2018-05-08T02:20:51.497Z,1009.65
2018-05-08T02:22:00.140Z,1009.65
2018-05-08T02:23:08.785Z,1009.62
2018-05-08T02:24:17.428Z,1009.59
2018-05-08T02:25:26.338Z,1009.58
2018-05-08T02:26:35.241Z,1009.58
2018-05-08T02:27:43.886Z,1009.55
2018-05-08T02:28:52.531Z,1009.54
2018-05-08T02:30:01.442Z,1009.54
2018-05-08T02:31:10.364Z,1009.52
2018-05-08T02:32:19.272Z,1009.51
2018-05-08T02:33:28.197Z,1009.53
2018-05-08T02:34:36.843Z,1009.52
2018-05-08T02:35:45.491Z,1009.51
2018-05-08T02:36:54.393Z,1009.51
2018-05-08T02:38:03.043Z,1009.51
2018-05-08T02:39:11.684Z,1009.53
2018-05-08T02:40:20.332Z,1009.5
2018-05-08T02:41:28.974Z,1009.53
2018-05-08T02:42:37.621Z,1009.53
2018-05-08T02:43:46.263Z,1009.51
2018-05-08T02:44:54.913Z,1009.51
2018-05-08T02:46:03.559Z,1009.49
2018-05-08T02:47:12.203Z,1009.48
2018-05-08T02:48:20.853Z,1009.48
2018-05-08T02:49:29.766Z,1009.48
2018-05-08T02:50:38.674Z,1009.48
2018-05-08T02:51:47.316Z,1009.48
2018-05-08T02:52:55.966Z,1009.44
2018-05-08T02:54:04.609Z,1009.43
2018-05-08T02:55:13.255Z,1009.43
2018-05-08T02:56:22.177Z,1009.42
2018-05-08T02:57:31.087Z,1009.45
2018-05-08T02:58:39.730Z,1009.43
2018-05-08T02:59:48.653Z,1009.42
2018-05-08T03:00:57.571Z,1009.41
2018-05-08T03:02:06.222Z,1009.39
2018-05-08T03:03:14.859Z,1009.42
2018-05-08T03:04:23.509Z,1009.38
2018-05-08T03:05:32.156Z,1009.39
2018-05-08T03:06:40.808Z,1009.41
2018-05-08T03:07:49.719Z,1009.38
2018-05-08T03:08:58.370Z,1009.43
2018-05-08T03:10:07.284Z,1009.41
2018-05-08T03:11:16.186Z,1009.38
2018-05-08T03:12:24.833Z,1009.43
2018-05-08T03:13:33.469Z,1009.42
2018-05-08T03:14:42.123Z,1009.42
2018-05-08T03:15:50.764Z,1009.42
2018-05-08T03:16:59.423Z,1009.39
2018-05-08T03:18:08.321Z,1009.4
2018-05-08T03:19:16.969Z,1009.39
2018-05-08T03:20:25.609Z,1009.38
2018-05-08T03:21:34.263Z,1009.35
2018-05-08T03:22:42.902Z,1009.36
2018-05-08T03:23:51.544Z,1009.34
2018-05-08T03:25:00.187Z,1009.3
2018-05-08T03:26:08.826Z,1009.31
2018-05-08T03:27:17.479Z,1009.31
2018-05-08T03:28:26.117Z,1009.3
2018-05-08T03:29:34.765Z,1009.32
2018-05-08T03:30:43.398Z,1009.35
2018-05-08T03:31:52.326Z,1009.29
2018-05-08T03:33:00.966Z,1009.3
2018-05-08T03:34:09.614Z,1009.31
2018-05-08T03:35:18.247Z,1009.31
2018-05-08T03:36:26.902Z,1009.31
2018-05-08T03:37:35.542Z,1009.33
2018-05-08T03:38:44.193Z,1009.34
2018-05-08T03:39:53.091Z,1009.33
2018-05-08T03:41:01.741Z,1009.31
2018-05-08T03:42:10.385Z,1009.35
2018-05-08T03:43:19.034Z,1009.32
2018-05-08T03:44:27.951Z,1009.3
2018-05-08T03:45:36.576Z,1009.3
2018-05-08T03:46:45.224Z,1009.31
2018-05-08T03:47:53.866Z,1009.27
2018-05-08T03:49:02.516Z,1009.27
2018-05-08T03:50:11.153Z,1009.24
2018-05-08T03:51:19.802Z,1009.27
2018-05-08T03:52:28.441Z,1009.26
2018-05-08T03:53:37.095Z,1009.26
2018-05-08T03:54:45.736Z,1009.28
2018-05-08T03:55:54.649Z,1009.24
2018-05-08T03:57:03.290Z,1009.25
2018-05-08T03:58:11.945Z,1009.22
2018-05-08T03:59:20.585Z,1009.22
2018-05-08T04:00:29.228Z,1009.2
2018-05-08T04:01:37.866Z,1009.19
2018-05-08T04:02:46.830Z,1009.21
2018-05-08T04:03:55.481Z,1009.18
2018-05-08T04:05:04.121Z,1009.23
2018-05-08T04:06:12.770Z,1009.24
2018-05-08T04:07:21.413Z,1009.25
2018-05-08T04:08:30.077Z,1009.2
2018-05-08T04:09:38.707Z,1009.16
2018-05-08T04:10:47.355Z,1009.21
2018-05-08T04:11:55.988Z,1009.18
2018-05-08T04:13:04.641Z,1009.19
2018-05-08T04:14:13.286Z,1009.17
2018-05-08T04:15:22.193Z,1009.19
2018-05-08T04:16:30.827Z,1009.18
2018-05-08T04:17:39.473Z,1009.15
2018-05-08T04:18:48.121Z,1009.14
2018-05-08T04:19:56.768Z,1009.18
2018-05-08T04:21:05.453Z,1009.14
2018-05-08T04:22:14.052Z,1009.13
2018-05-08T04:23:22.702Z,1009.1
2018-05-08T04:24:31.344Z,1009.1
2018-05-08T04:25:40.257Z,1009.09
2018-05-08T04:26:48.894Z,1009.1
2018-05-08T04:27:57.541Z,1009.1
2018-05-08T04:29:06.446Z,1009.08
2018-05-08T04:30:15.097Z,1009.08
2018-05-08T04:31:23.732Z,1009.06
2018-05-08T04:32:32.379Z,1009.05
2018-05-08T04:33:41.293Z,1009.07
2018-05-08T04:34:49.948Z,1009.07
2018-05-08T04:35:58.587Z,1009.03
2018-05-08T04:37:07.227Z,1009.04
2018-05-08T04:38:15.869Z,1009.05
2018-05-08T04:39:24.513Z,1008.99
2018-05-08T04:40:33.161Z,1008.97
2018-05-08T04:41:41.803Z,1008.98
2018-05-08T04:42:50.448Z,1008.97
2018-05-08T04:43:59.343Z,1008.95
2018-05-08T04:45:07.994Z,1008.95
2018-05-08T04:46:16.948Z,1008.95
2018-05-08T04:47:25.945Z,1008.92
2018-05-08T04:48:34.853Z,1008.92
2018-05-08T04:49:43.502Z,1008.95
2018-05-08T04:50:52.147Z,1008.96
2018-05-08T04:52:00.796Z,1008.95
2018-05-08T04:53:09.432Z,1008.9
2018-05-08T04:54:18.080Z,1008.95
2018-05-08T04:55:26.731Z,1008.92
2018-05-08T04:56:35.642Z,1008.96
2018-05-08T04:57:44.290Z,1008.91
2018-05-08T04:58:52.925Z,1008.9
2018-05-08T05:00:01.854Z,1008.89
2018-05-08T05:01:10.758Z,1008.87
2018-05-08T05:02:19.413Z,1008.88
2018-05-08T05:03:28.046Z,1008.85
2018-05-08T05:04:36.697Z,1008.83
2018-05-08T05:05:45.336Z,1008.82
2018-05-08T05:06:53.995Z,1008.84
2018-05-08T05:08:03.306Z,1008.82
2018-05-08T05:09:11.951Z,1008.83
2018-05-08T05:10:20.592Z,1008.83
2018-05-08T05:11:29.517Z,1008.85
2018-05-08T05:12:38.155Z,1008.8
2018-05-08T05:13:46.804Z,1008.83
2018-05-08T05:14:55.444Z,1008.78
2018-05-08T05:16:04.085Z,1008.83
2018-05-08T05:17:12.734Z,1008.82
2018-05-08T05:18:21.639Z,1008.78
2018-05-08T05:19:30.285Z,1008.8
2018-05-08T05:20:38.919Z,1008.8
2018-05-08T05:21:47.567Z,1008.78
2018-05-08T05:22:56.211Z,1008.82
2018-05-08T05:24:04.857Z,1008.78
2018-05-08T05:25:13.758Z,1008.8
2018-05-08T05:26:22.408Z,1008.78
2018-05-08T05:27:31.052Z,1008.82
2018-05-08T05:28:39.703Z,1008.78
2018-05-08T05:29:48.338Z,1008.81
2018-05-08T05:30:56.987Z,1008.84
2018-05-08T05:32:05.633Z,1008.8
2018-05-08T05:33:14.545Z,1008.82
2018-05-08T05:34:23.193Z,1008.81
2018-05-08T05:35:32.111Z,1008.8
2018-05-08T05:36:40.753Z,1008.84
2018-05-08T05:37:49.659Z,1008.82
2018-05-08T05:38:58.309Z,1008.8
2018-05-08T05:40:07.217Z,1008.8
2018-05-08T05:41:15.862Z,1008.75
2018-05-08T05:42:24.507Z,1008.78
2018-05-08T05:43:33.155Z,1008.72
2018-05-08T05:44:41.796Z,1008.77
2018-05-08T05:45:50.442Z,1008.74
2018-05-08T05:46:59.090Z,1008.76
2018-05-08T05:48:07.736Z,1008.76
2018-05-08T05:49:16.378Z,1008.74
2018-05-08T05:50:25.025Z,1008.75
2018-05-08T05:51:33.672Z,1008.75
2018-05-08T05:52:42.316Z,1008.74
2018-05-08T05:53:50.986Z,1008.75
2018-05-08T05:54:59.632Z,1008.76
2018-05-08T05:56:08.276Z,1008.73
2018-05-08T05:57:16.916Z,1008.74
2018-05-08T05:58:25.568Z,1008.76
2018-05-08T05:59:34.211Z,1008.79
2018-05-08T06:00:42.857Z,1008.78
2018-05-08T06:01:51.498Z,1008.74
2018-05-08T06:03:00.147Z,1008.77
2018-05-08T06:04:08.791Z,1008.71
2018-05-08T06:05:17.440Z,1008.69
2018-05-08T06:06:26.454Z,1008.68
2018-05-08T06:07:35.571Z,1008.65
2018-05-08T06:08:44.217Z,1008.64
2018-05-08T06:09:52.862Z,1008.61
2018-05-08T06:11:01.505Z,1008.6
2018-05-08T06:12:10.152Z,1008.59
2018-05-08T06:13:18.799Z,1008.57
2018-05-08T06:14:27.445Z,1008.6
2018-05-08T06:15:36.091Z,1008.58
2018-05-08T06:16:45.275Z,1008.62
2018-05-08T06:17:53.920Z,1008.55
2018-05-08T06:19:02.570Z,1008.55
2018-05-08T06:20:11.219Z,1008.59
2018-05-08T06:21:19.869Z,1008.56
2018-05-08T06:22:28.514Z,1008.57
2018-05-08T06:23:37.167Z,1008.59
2018-05-08T06:24:45.808Z,1008.58
2018-05-08T06:25:54.461Z,1008.56
2018-05-08T06:27:03.121Z,1008.54
2018-05-08T06:28:11.768Z,1008.56
2018-05-08T06:29:20.414Z,1008.57
2018-05-08T06:30:29.054Z,1008.58
2018-05-08T06:31:38.259Z,1008.52
2018-05-08T06:32:46.904Z,1008.52
2018-05-08T06:33:55.825Z,1008.53
2018-05-08T06:35:04.470Z,1008.56
2018-05-08T06:36:13.386Z,1008.57
2018-05-08T06:37:22.036Z,1008.57
2018-05-08T06:38:30.686Z,1008.52
2018-05-08T06:39:39.327Z,1008.55
2018-05-08T06:40:47.978Z,1008.53
2018-05-08T06:41:56.631Z,1008.5
2018-05-08T06:43:05.546Z,1008.52
2018-05-08T06:44:14.478Z,1008.52
2018-05-08T06:45:23.104Z,1008.51
2018-05-08T06:46:31.753Z,1008.52
2018-05-08T06:47:40.761Z,1008.5
2018-05-08T06:48:49.411Z,1008.52
2018-05-08T06:49:58.056Z,1008.48
2018-05-08T06:51:06.705Z,1008.47
2018-05-08T06:52:15.346Z,1008.46
2018-05-08T06:53:24.001Z,1008.44
2018-05-08T06:54:32.659Z,1008.47
2018-05-08T06:55:41.315Z,1008.45
2018-05-08T06:56:49.960Z,1008.45
2018-05-08T06:57:58.611Z,1008.43
2018-05-08T06:59:07.524Z,1008.46
2018-05-08T07:00:16.168Z,1008.46
2018-05-08T07:01:24.815Z,1008.5
2018-05-08T07:02:33.731Z,1008.49
2018-05-08T07:03:42.380Z,1008.5
2018-05-08T07:04:51.032Z,1008.55
2018-05-08T07:05:59.681Z,1008.56
2018-05-08T07:07:08.334Z,1008.56
2018-05-08T07:08:18.573Z,1008.54
2018-05-08T07:09:27.216Z,1008.56
2018-05-08T07:10:35.872Z,1008.53
2018-05-08T07:11:44.513Z,1008.52
2018-05-08T07:12:53.165Z,1008.5
2018-05-08T07:14:02.082Z,1008.48
2018-05-08T07:15:10.739Z,1008.5
2018-05-08T07:16:19.377Z,1008.46
2018-05-08T07:17:28.029Z,1008.47
2018-05-08T07:18:36.674Z,1008.5
2018-05-08T07:19:45.602Z,1008.51
2018-05-08T07:20:54.247Z,1008.52
2018-05-08T07:22:02.889Z,1008.51
2018-05-08T07:23:11.548Z,1008.51
2018-05-08T07:24:20.187Z,1008.48
2018-05-08T07:25:28.844Z,1008.53
2018-05-08T07:26:37.488Z,1008.51
2018-05-08T07:27:46.143Z,1008.52
2018-05-08T07:28:54.783Z,1008.51
2018-05-08T07:30:03.451Z,1008.5
2018-05-08T07:31:12.459Z,1008.48
2018-05-08T07:32:21.116Z,1008.52
2018-05-08T07:33:29.752Z,1008.53
2018-05-08T07:34:38.691Z,1008.56
2018-05-08T07:35:47.339Z,1008.55
2018-05-08T07:36:55.989Z,1008.55
2018-05-08T07:38:04.640Z,1008.57
2018-05-08T07:39:13.293Z,1008.55
2018-05-08T07:40:21.948Z,1008.57
2018-05-08T07:41:30.596Z,1008.58
2018-05-08T07:42:39.244Z,1008.59
2018-05-08T07:43:47.884Z,1008.6
2018-05-08T07:44:56.538Z,1008.57
2018-05-08T07:46:05.466Z,1008.59
2018-05-08T07:47:14.125Z,1008.59
2018-05-08T07:48:22.764Z,1008.57
2018-05-08T07:49:31.416Z,1008.56
2018-05-08T07:50:40.349Z,1008.55
2018-05-08T07:51:49.051Z,1008.54
2018-05-08T07:52:57.642Z,1008.53
2018-05-08T07:54:06.301Z,1008.54
2018-05-08T07:55:14.945Z,1008.54
2018-05-08T07:56:23.613Z,1008.55
2018-05-08T07:57:32.526Z,1008.51
2018-05-08T07:58:41.169Z,1008.56
2018-05-08T07:59:49.813Z,1008.55
2018-05-08T08:00:58.458Z,1008.55
2018-05-08T08:02:07.115Z,1008.58
2018-05-08T08:03:15.800Z,1008.55
2018-05-08T08:04:24.412Z,1008.53
2018-05-08T08:05:33.051Z,1008.52
2018-05-08T08:06:41.711Z,1008.56
2018-05-08T08:07:50.355Z,1008.52
2018-05-08T08:08:59.003Z,1008.51
2018-05-08T08:10:07.649Z,1008.5
2018-05-08T08:11:16.304Z,1008.5
2018-05-08T08:12:25.023Z,1008.49
2018-05-08T08:13:33.605Z,1008.5
2018-05-08T08:14:42.246Z,1008.52
2018-05-08T08:15:50.903Z,1008.51
2018-05-08T08:16:59.553Z,1008.56
2018-05-08T08:18:08.211Z,1008.54
2018-05-08T08:19:16.861Z,1008.47
2018-05-08T08:20:25.773Z,1008.47
2018-05-08T08:21:34.424Z,1008.52
2018-05-08T08:22:43.077Z,1008.43
2018-05-08T08:23:51.761Z,1008.44
2018-05-08T08:25:00.373Z,1008.46
2018-05-08T08:26:09.023Z,1008.41
2018-05-08T08:27:17.683Z,1008.39
2018-05-08T08:28:26.334Z,1008.4
2018-05-08T08:29:35.340Z,1008.39
2018-05-08T08:30:44.327Z,1008.38
2018-05-08T08:31:52.965Z,1008.33
2018-05-08T08:33:01.888Z,1008.33
2018-05-08T08:34:10.536Z,1008.37
2018-05-08T08:35:19.184Z,1008.37
2018-05-08T08:36:27.834Z,1008.35
2018-05-08T08:37:36.482Z,1008.34
2018-05-08T08:38:45.143Z,1008.33
2018-05-08T08:39:53.791Z,1008.27
2018-05-08T08:41:02.706Z,1008.25
2018-05-08T08:42:11.351Z,1008.23
2018-05-08T08:43:20.016Z,1008.24
2018-05-08T08:44:28.653Z,1008.26
2018-05-08T08:45:37.312Z,1008.26
2018-05-08T08:46:45.957Z,1008.17
2018-05-08T08:47:54.712Z,1008.21
2018-05-08T08:49:03.272Z,1008.18
2018-05-08T08:50:11.920Z,1008.21
2018-05-08T08:51:20.828Z,1008.21
2018-05-08T08:52:29.521Z,1008.21
2018-05-08T08:53:38.130Z,1008.16
2018-05-08T08:54:46.786Z,1008.12
2018-05-08T08:55:55.463Z,1008.19
2018-05-08T08:57:04.088Z,1008.14
2018-05-08T08:58:12.742Z,1008.13
2018-05-08T08:59:21.392Z,1008.18
2018-05-08T09:00:30.048Z,1008.1
2018-05-08T09:01:38.693Z,1008.15
2018-05-08T09:02:47.345Z,1008.11
2018-05-08T09:03:56.044Z,1008.14
2018-05-08T09:05:04.655Z,1008.13
2018-05-08T09:06:13.294Z,1008.13
2018-05-08T09:07:21.947Z,1008.09
2018-05-08T09:08:30.595Z,1008.09
2018-05-08T09:09:39.254Z,1008.04
2018-05-08T09:10:47.903Z,1008.04
2018-05-08T09:11:56.811Z,1008.01
2018-05-08T09:13:05.460Z,1008.04
2018-05-08T09:14:14.109Z,1008.06
2018-05-08T09:15:22.772Z,1008.03
2018-05-08T09:16:31.683Z,1008.06
2018-05-08T09:17:40.344Z,1007.99
2018-05-08T09:18:48.987Z,1007.94
2018-05-08T09:19:57.647Z,1007.99
2018-05-08T09:21:06.556Z,1007.98
2018-05-08T09:22:15.213Z,1007.98
2018-05-08T09:23:23.855Z,1007.99
2018-05-08T09:24:32.516Z,1007.96
2018-05-08T09:25:41.170Z,1007.93
2018-05-08T09:26:49.817Z,1007.92
2018-05-08T09:27:58.722Z,1007.9
2018-05-08T09:29:07.375Z,1007.9
2018-05-08T09:30:16.031Z,1007.84
2018-05-08T09:31:24.683Z,1007.76
2018-05-08T09:32:33.335Z,1007.76
2018-05-08T09:33:41.978Z,1007.75
2018-05-08T09:34:50.899Z,1007.74
2018-05-08T09:35:59.548Z,1007.76
2018-05-08T09:37:08.477Z,1007.73
2018-05-08T09:38:17.380Z,1007.71
2018-05-08T09:39:26.037Z,1007.71
2018-05-08T09:40:34.684Z,1007.72
2018-05-08T09:41:43.607Z,1007.72
2018-05-08T09:42:52.252Z,1007.65
2018-05-08T09:44:01.193Z,1007.68
2018-05-08T09:45:09.843Z,1007.62
2018-05-08T09:46:18.506Z,1007.59
2018-05-08T09:47:27.155Z,1007.59
2018-05-08T09:48:35.802Z,1007.56
2018-05-08T09:49:44.738Z,1007.52
2018-05-08T09:50:53.387Z,1007.51
2018-05-08T09:52:02.331Z,1007.51
2018-05-08T09:53:10.976Z,1007.48
2018-05-08T09:54:19.905Z,1007.45
2018-05-08T09:55:29.172Z,1007.44
2018-05-08T09:56:41.046Z,1007.42
2018-05-08T09:57:53.187Z,1007.4
2018-05-08T09:59:01.848Z,1007.4
2018-05-08T10:00:10.755Z,1007.43
2018-05-08T10:01:19.441Z,1007.31
2018-05-08T10:02:28.362Z,1007.34
2018-05-08T10:03:37.010Z,1007.36
2018-05-08T10:04:45.942Z,1007.32
2018-05-08T10:05:54.600Z,1007.31
2018-05-08T10:07:03.248Z,1007.34
2018-05-08T10:08:12.163Z,1007.33
2018-05-08T10:09:21.083Z,1007.3
2018-05-08T10:10:29.747Z,1007.28
2018-05-08T10:11:38.391Z,1007.31
2018-05-08T10:12:47.310Z,1007.3
2018-05-08T10:13:55.955Z,1007.27
2018-05-08T10:15:04.625Z,1007.3
2018-05-08T10:16:13.269Z,1007.26
2018-05-08T10:17:21.927Z,1007.24
2018-05-08T10:18:30.570Z,1007.22
2018-05-08T10:19:39.231Z,1007.21
2018-05-08T10:20:47.884Z,1007.17
2018-05-08T10:21:56.537Z,1007.16
2018-05-08T10:23:05.180Z,1007.21
2018-05-08T10:24:13.841Z,1007.14
2018-05-08T10:25:22.492Z,1007.12
2018-05-08T10:26:31.415Z,1007.08
2018-05-08T10:27:40.338Z,1007.09
2018-05-08T10:28:49.252Z,1007.08
2018-05-08T10:29:57.900Z,1007.03
2018-05-08T10:31:06.829Z,1007.02
2018-05-08T10:32:15.486Z,1006.99
2018-05-08T10:33:24.398Z,1007
2018-05-08T10:34:33.060Z,1006.97
2018-05-08T10:35:41.710Z,1007
2018-05-08T10:36:50.368Z,1006.94
2018-05-08T10:37:59.012Z,1006.96
2018-05-08T10:39:07.666Z,1006.96
2018-05-08T10:40:16.319Z,1006.94
2018-05-08T10:41:24.982Z,1006.96
2018-05-08T10:42:33.898Z,1006.86
2018-05-08T10:43:42.557Z,1006.87
2018-05-08T10:44:51.199Z,1006.84
2018-05-08T10:45:59.849Z,1006.86
2018-05-08T10:47:08.513Z,1006.78
2018-05-08T10:48:17.432Z,1006.86
2018-05-08T10:49:26.089Z,1006.83
2018-05-08T10:50:34.731Z,1006.81
2018-05-08T10:51:43.406Z,1006.77
2018-05-08T10:52:52.316Z,1006.82
2018-05-08T10:54:00.975Z,1006.81
2018-05-08T10:55:09.891Z,1006.84
2018-05-08T10:56:18.556Z,1006.81
2018-05-08T10:57:27.206Z,1006.8
2018-05-08T10:58:36.126Z,1006.74
2018-05-08T10:59:44.773Z,1006.71
2018-05-08T11:00:53.427Z,1006.7
2018-05-08T11:02:02.115Z,1006.67
2018-05-08T11:03:10.770Z,1006.67
2018-05-08T11:04:19.426Z,1006.6
2018-05-08T11:05:28.078Z,1006.63
2018-05-08T11:06:36.732Z,1006.68
2018-05-08T11:07:45.656Z,1006.63
2018-05-08T11:08:54.316Z,1006.62
2018-05-08T11:10:02.967Z,1006.57
2018-05-08T11:11:11.617Z,1006.57
2018-05-08T11:12:20.277Z,1006.62
2018-05-08T11:13:28.933Z,1006.59
2018-05-08T11:14:37.582Z,1006.58
2018-05-08T11:15:46.239Z,1006.53
2018-05-08T11:16:54.892Z,1006.52
2018-05-08T11:18:03.577Z,1006.52
2018-05-08T11:19:12.202Z,1006.46
2018-05-08T11:20:20.854Z,1006.46
2018-05-08T11:21:29.508Z,1006.4
2018-05-08T11:22:38.420Z,1006.44
2018-05-08T11:23:47.079Z,1006.36
2018-05-08T11:24:55.999Z,1006.39
2018-05-08T11:26:04.657Z,1006.35
2018-05-08T11:27:13.303Z,1006.34
2018-05-08T11:28:21.964Z,1006.31
2018-05-08T11:29:30.617Z,1006.3
2018-05-08T11:30:39.539Z,1006.4
2018-05-08T11:31:48.188Z,1006.37
2018-05-08T11:32:56.848Z,1006.31
2018-05-08T11:34:05.500Z,1006.33
2018-05-08T11:35:14.429Z,1006.33
2018-05-08T11:36:23.077Z,1006.33
2018-05-08T11:37:31.732Z,1006.3
2018-05-08T11:38:40.387Z,1006.3
2018-05-08T11:39:49.045Z,1006.24
2018-05-08T11:40:57.703Z,1006.22
2018-05-08T11:42:06.353Z,1006.22
2018-05-08T11:43:15.022Z,1006.2
2018-05-08T11:44:23.947Z,1006.14
2018-05-08T11:45:32.606Z,1006.17
2018-05-08T11:46:41.256Z,1006.14
2018-05-08T11:47:49.912Z,1006.12
2018-05-08T11:48:58.565Z,1006.14
2018-05-08T11:50:07.253Z,1006.08
2018-05-08T11:51:15.873Z,1006.1
2018-05-08T11:52:24.529Z,1006.06
2018-05-08T11:53:33.187Z,1006.1
2018-05-08T11:54:41.845Z,1006.09
2018-05-08T11:55:50.497Z,1006.01
2018-05-08T11:56:59.419Z,1006.02
2018-05-08T11:58:08.069Z,1006.03
2018-05-08T11:59:16.991Z,1006.02
2018-05-08T12:00:25.650Z,1005.98
2018-05-08T12:01:34.315Z,1005.95
2018-05-08T12:02:43.009Z,1005.94
2018-05-08T12:03:51.627Z,1005.91
2018-05-08T12:05:00.269Z,1005.9
2018-05-08T12:06:09.008Z,1005.96
2018-05-08T12:07:17.579Z,1006
2018-05-08T12:08:26.511Z,1005.99
2018-05-08T12:09:35.144Z,1005.89
2018-05-08T12:10:44.072Z,1005.92
2018-05-08T12:11:52.724Z,1005.9
2018-05-08T12:13:01.652Z,1005.91
2018-05-08T12:14:10.304Z,1005.88
2018-05-08T12:15:18.955Z,1005.87
2018-05-08T12:16:27.607Z,1005.82
2018-05-08T12:17:36.258Z,1005.79
2018-05-08T12:18:44.921Z,1005.81
2018-05-08T12:19:53.570Z,1005.78
2018-05-08T12:21:02.233Z,1005.84
2018-05-08T12:22:11.143Z,1005.82
2018-05-08T12:23:19.802Z,1005.88
2018-05-08T12:24:28.454Z,1005.81
2018-05-08T12:25:37.146Z,1005.78
2018-05-08T12:26:45.759Z,1005.78
2018-05-08T12:27:54.427Z,1005.72
2018-05-08T12:29:03.079Z,1005.78
2018-05-08T12:30:11.744Z,1005.77
2018-05-08T12:31:20.384Z,1005.7
2018-05-08T12:32:29.045Z,1005.74
2018-05-08T12:33:37.722Z,1005.65
2018-05-08T12:34:46.378Z,1005.62
2018-05-08T12:35:55.036Z,1005.61
2018-05-08T12:37:03.951Z,1005.6
2018-05-08T12:38:12.616Z,1005.57
2018-05-08T12:39:21.261Z,1005.57
2018-05-08T12:40:30.187Z,1005.56
2018-05-08T12:41:38.830Z,1005.57
2018-05-08T12:42:47.758Z,1005.56
2018-05-08T12:43:56.411Z,1005.54
2018-05-08T12:45:05.076Z,1005.62
2018-05-08T12:46:13.988Z,1005.57
2018-05-08T12:47:22.641Z,1005.57
2018-05-08T12:48:31.310Z,1005.56
2018-05-08T12:49:39.974Z,1005.48
2018-05-08T12:50:48.623Z,1005.44
2018-05-08T12:51:57.537Z,1005.45
2018-05-08T12:53:06.194Z,1005.47
2018-05-08T12:54:15.122Z,1005.42
2018-05-08T12:55:23.787Z,1005.36
2018-05-08T12:56:32.697Z,1005.39
2018-05-08T12:57:41.357Z,1005.36
2018-05-08T12:58:50.534Z,1005.38
2018-05-08T12:59:59.195Z,1005.34
2018-05-08T13:01:07.848Z,1005.35
2018-05-08T13:02:16.775Z,1005.34
2018-05-08T13:03:25.427Z,1005.3
2018-05-08T13:04:34.089Z,1005.32
2018-05-08T13:05:42.739Z,1005.24
2018-05-08T13:06:51.390Z,1005.23
2018-05-08T13:08:00.042Z,1005.2
2018-05-08T13:09:08.703Z,1005.2
2018-05-08T13:10:17.362Z,1005.15
2018-05-08T13:11:26.020Z,1005.18
2018-05-08T13:12:34.677Z,1005.21
2018-05-08T13:13:43.325Z,1005.19
2018-05-08T13:14:51.980Z,1005.15
2018-05-08T13:16:00.643Z,1005.18
2018-05-08T13:17:09.294Z,1005.19
2018-05-08T13:18:17.969Z,1005.18
2018-05-08T13:19:26.977Z,1005.16
2018-05-08T13:20:35.627Z,1005.17
2018-05-08T13:21:44.291Z,1005.16
2018-05-08T13:22:52.951Z,1005.17
2018-05-08T13:24:01.870Z,1005.13
2018-05-08T13:25:10.790Z,1005.17
2018-05-08T13:26:19.452Z,1005.08
2018-05-08T13:27:28.103Z,1005.1
2018-05-08T13:28:37.024Z,1005.09
2018-05-08T13:29:45.943Z,1005.07
2018-05-08T13:30:54.599Z,1005.05
2018-05-08T13:32:03.259Z,1005.03
2018-05-08T13:33:12.186Z,1004.98
2018-05-08T13:34:20.840Z,1004.96
2018-05-08T13:35:29.488Z,1004.98
2018-05-08T13:36:38.236Z,1004.95
2018-05-08T13:37:46.806Z,1004.92
2018-05-08T13:38:55.461Z,1004.88
2018-05-08T13:40:04.116Z,1004.91
2018-05-08T13:41:12.775Z,1004.9
2018-05-08T13:42:21.427Z,1004.85
2018-05-08T13:43:30.358Z,1004.93
2018-05-08T13:44:39.003Z,1004.92
2018-05-08T13:45:47.659Z,1004.94
2018-05-08T13:46:56.315Z,1004.9
2018-05-08T13:48:05.076Z,1004.86
2018-05-08T13:49:13.631Z,1004.83
2018-05-08T13:50:22.283Z,1004.82
2018-05-08T13:51:30.938Z,1004.77
2018-05-08T13:52:39.860Z,1004.81
2018-05-08T13:53:48.519Z,1004.84